Startpagina
METAR-TAF:

METAR-TAF

Vliegvelden :

Internationale Luchthaven Baghdad

Bagdad, Irak

breedte: 33-15-45N, lengte: 44-14-04E, hoogte: 35 m

Actueel weer

Dit bericht is 47 minuten geleden gemaakt, om 20:00 UTC
Wind 5 kt uit het noordwesten
Temperatuur 15°C
Vochtigheid 100%
Druk 1022 hPa
Zicht: 5000 m

METAR: ORBI 162000Z 32005KT 5000 NSC 15/15 Q1022 NOSIG

Tijdstip: 23:47 (20:47 UTC)

Verwachting

Dit bericht is 3 uur en het 47 minuten geleden gemaakt, om 17:00 UTC
Verwachting geldig van 16 om 18 UTC tot 17 om 18 UTC
Wind 3 kt uit variabele richting
Zicht: 6000 m
Wijzigt naar
van 17 om 00 UTC tot 17 om 02 UTC
Zicht: 2000 m
nevel
Kans 40%
van 17 om 03 UTC tot 17 om 06 UTC
Zicht: 0500 m
mist
Wijzigt naar
van 17 om 07 UTC tot 17 om 09 UTC
Wind 6 kt uit het noordwesten
Zicht: 5000 m

TAF: ORBI 161700Z 1618/1718 VRB03KT 6000 NSC BECMG 1700/1702 2000 BR PROB40 1703/1706 0500 FG BECMG 1707/1709 32006KT 5000

Waarnemingen en weersverwachtingen van meer dan 4000 vliegvelden (METAR en TAF).

De beschikbare stations zijn de gele en rode punten op de kaart.

Ga met uw muis naar het station om de naam te zien.

Klik dan om waarnemingen en weersverwachtingen te zien.

kaart wijzigen: klik op de groene knoppen met een zwart kruis om in te zoomen, op de groene knop met een streepje om uit te zoomen of op de groene pijlen voor aangrenzende kaarten.


METAR-TAF: